sensor_id;sensor_type;location;lat;lon;timestamp;temperature;humidity
68439;SHT31;55421;51.600;5.718;2024-02-21T00:01:22;9.89;82.80
68439;SHT31;55421;51.600;5.718;2024-02-21T00:03:50;9.90;82.86
68439;SHT31;55421;51.600;5.718;2024-02-21T00:06:16;9.89;82.82
68439;SHT31;55421;51.600;5.718;2024-02-21T00:08:43;9.89;82.84
68439;SHT31;55421;51.600;5.718;2024-02-21T00:11:09;9.89;82.80
68439;SHT31;55421;51.600;5.718;2024-02-21T00:13:36;9.89;82.86
68439;SHT31;55421;51.600;5.718;2024-02-21T00:16:03;9.90;82.90
68439;SHT31;55421;51.600;5.718;2024-02-21T00:18:29;9.90;82.90
68439;SHT31;55421;51.600;5.718;2024-02-21T00:20:56;9.91;82.92
68439;SHT31;55421;51.600;5.718;2024-02-21T00:23:22;9.91;82.90
68439;SHT31;55421;51.600;5.718;2024-02-21T00:25:49;9.92;82.88
68439;SHT31;55421;51.600;5.718;2024-02-21T00:28:16;9.92;82.93
68439;SHT31;55421;51.600;5.718;2024-02-21T00:30:42;9.93;82.93
68439;SHT31;55421;51.600;5.718;2024-02-21T00:33:09;9.93;82.92
68439;SHT31;55421;51.600;5.718;2024-02-21T00:35:36;9.93;82.91
68439;SHT31;55421;51.600;5.718;2024-02-21T00:38:02;9.93;82.93
68439;SHT31;55421;51.600;5.718;2024-02-21T00:40:29;9.91;83.00
68439;SHT31;55421;51.600;5.718;2024-02-21T00:42:56;9.92;82.98
68439;SHT31;55421;51.600;5.718;2024-02-21T00:45:22;9.89;82.94
68439;SHT31;55421;51.600;5.718;2024-02-21T00:47:49;9.87;82.94
68439;SHT31;55421;51.600;5.718;2024-02-21T00:50:16;9.86;82.95
68439;SHT31;55421;51.600;5.718;2024-02-21T00:52:42;9.85;83.00
68439;SHT31;55421;51.600;5.718;2024-02-21T00:55:09;9.82;83.00
68439;SHT31;55421;51.600;5.718;2024-02-21T00:57:36;9.80;83.00
68439;SHT31;55421;51.600;5.718;2024-02-21T01:00:03;9.78;83.03
68439;SHT31;55421;51.600;5.718;2024-02-21T01:02:31;9.76;83.08
68439;SHT31;55421;51.600;5.718;2024-02-21T01:04:57;9.72;83.08
68439;SHT31;55421;51.600;5.718;2024-02-21T01:07:24;9.68;83.08
68439;SHT31;55421;51.600;5.718;2024-02-21T01:09:50;9.66;83.10
68439;SHT31;55421;51.600;5.718;2024-02-21T01:12:18;9.62;83.10
68439;SHT31;55421;51.600;5.718;2024-02-21T01:14:44;9.59;83.11
68439;SHT31;55421;51.600;5.718;2024-02-21T01:17:13;9.56;83.22
68439;SHT31;55421;51.600;5.718;2024-02-21T01:19:39;9.55;83.30
68439;SHT31;55421;51.600;5.718;2024-02-21T01:22:06;9.53;83.30
68439;SHT31;55421;51.600;5.718;2024-02-21T01:24:33;9.53;83.31
68439;SHT31;55421;51.600;5.718;2024-02-21T01:26:59;9.53;83.35
68439;SHT31;55421;51.600;5.718;2024-02-21T01:29:26;9.54;83.38
68439;SHT31;55421;51.600;5.718;2024-02-21T01:31:52;9.55;83.39
68439;SHT31;55421;51.600;5.718;2024-02-21T01:34:19;9.55;83.36
68439;SHT31;55421;51.600;5.718;2024-02-21T01:36:45;9.55;83.35
68439;SHT31;55421;51.600;5.718;2024-02-21T01:39:12;9.55;83.31
68439;SHT31;55421;51.600;5.718;2024-02-21T01:41:38;9.56;83.31
68439;SHT31;55421;51.600;5.718;2024-02-21T01:44:05;9.57;83.30
68439;SHT31;55421;51.600;5.718;2024-02-21T01:46:31;9.57;83.28
68439;SHT31;55421;51.600;5.718;2024-02-21T01:48:58;9.58;83.23
68439;SHT31;55421;51.600;5.718;2024-02-21T01:51:25;9.58;83.17
68439;SHT31;55421;51.600;5.718;2024-02-21T01:53:52;9.57;83.11
68439;SHT31;55421;51.600;5.718;2024-02-21T01:56:21;9.57;83.12
68439;SHT31;55421;51.600;5.718;2024-02-21T01:58:48;9.58;83.10
68439;SHT31;55421;51.600;5.718;2024-02-21T02:01:17;9.59;83.10
68439;SHT31;55421;51.600;5.718;2024-02-21T02:03:47;9.58;83.09
68439;SHT31;55421;51.600;5.718;2024-02-21T02:06:13;9.58;83.03
68439;SHT31;55421;51.600;5.718;2024-02-21T02:08:40;9.55;83.07
68439;SHT31;55421;51.600;5.718;2024-02-21T02:11:08;9.54;83.10
68439;SHT31;55421;51.600;5.718;2024-02-21T02:13:35;9.52;83.10
68439;SHT31;55421;51.600;5.718;2024-02-21T02:16:01;9.53;83.10
68439;SHT31;55421;51.600;5.718;2024-02-21T02:18:28;9.54;83.08
68439;SHT31;55421;51.600;5.718;2024-02-21T02:20:55;9.57;83.04
68439;SHT31;55421;51.600;5.718;2024-02-21T02:23:25;9.58;82.98
68439;SHT31;55421;51.600;5.718;2024-02-21T02:26:01;9.61;82.92
68439;SHT31;55421;51.600;5.718;2024-02-21T02:28:27;9.62;82.87
68439;SHT31;55421;51.600;5.718;2024-02-21T02:30:54;9.65;82.81
68439;SHT31;55421;51.600;5.718;2024-02-21T02:33:21;9.63;82.68
68439;SHT31;55421;51.600;5.718;2024-02-21T02:35:47;9.63;82.62
68439;SHT31;55421;51.600;5.718;2024-02-21T02:38:14;9.62;82.56
68439;SHT31;55421;51.600;5.718;2024-02-21T02:43:13;9.62;82.53
68439;SHT31;55421;51.600;5.718;2024-02-21T02:45:39;9.62;82.57
68439;SHT31;55421;51.600;5.718;2024-02-21T02:48:06;9.62;82.59
68439;SHT31;55421;51.600;5.718;2024-02-21T02:50:33;9.63;82.58
68439;SHT31;55421;51.600;5.718;2024-02-21T02:53:00;9.63;82.51
68439;SHT31;55421;51.600;5.718;2024-02-21T02:55:26;9.64;82.44
68439;SHT31;55421;51.600;5.718;2024-02-21T02:57:53;9.65;82.43
68439;SHT31;55421;51.600;5.718;2024-02-21T03:00:20;9.65;82.31
68439;SHT31;55421;51.600;5.718;2024-02-21T03:02:48;9.65;82.33
68439;SHT31;55421;51.600;5.718;2024-02-21T03:05:17;9.66;82.40
68439;SHT31;55421;51.600;5.718;2024-02-21T03:07:46;9.66;82.37
68439;SHT31;55421;51.600;5.718;2024-02-21T03:10:13;9.65;82.32
68439;SHT31;55421;51.600;5.718;2024-02-21T03:12:42;9.66;82.32
68439;SHT31;55421;51.600;5.718;2024-02-21T03:15:09;9.65;82.29
68439;SHT31;55421;51.600;5.718;2024-02-21T03:17:36;9.67;82.30
68439;SHT31;55421;51.600;5.718;2024-02-21T03:20:03;9.68;82.26
68439;SHT31;55421;51.600;5.718;2024-02-21T03:22:36;9.68;82.20
68439;SHT31;55421;51.600;5.718;2024-02-21T03:25:03;9.67;82.19
68439;SHT31;55421;51.600;5.718;2024-02-21T03:27:31;9.66;82.20
68439;SHT31;55421;51.600;5.718;2024-02-21T03:29:58;9.65;82.19
68439;SHT31;55421;51.600;5.718;2024-02-21T03:32:24;9.64;82.10
68439;SHT31;55421;51.600;5.718;2024-02-21T03:34:51;9.63;82.14
68439;SHT31;55421;51.600;5.718;2024-02-21T03:37:18;9.63;82.18
68439;SHT31;55421;51.600;5.718;2024-02-21T03:39:44;9.63;82.20
68439;SHT31;55421;51.600;5.718;2024-02-21T03:42:11;9.62;82.13
68439;SHT31;55421;51.600;5.718;2024-02-21T03:44:38;9.63;82.15
68439;SHT31;55421;51.600;5.718;2024-02-21T03:47:04;9.62;82.12
68439;SHT31;55421;51.600;5.718;2024-02-21T03:49:31;9.63;82.11
68439;SHT31;55421;51.600;5.718;2024-02-21T03:51:57;9.63;82.10
68439;SHT31;55421;51.600;5.718;2024-02-21T03:54:24;9.62;82.03
68439;SHT31;55421;51.600;5.718;2024-02-21T03:56:50;9.62;82.00
68439;SHT31;55421;51.600;5.718;2024-02-21T03:59:17;9.62;82.00
68439;SHT31;55421;51.600;5.718;2024-02-21T04:01:44;9.62;82.00
68439;SHT31;55421;51.600;5.718;2024-02-21T04:04:11;9.60;81.99
68439;SHT31;55421;51.600;5.718;2024-02-21T04:06:45;9.58;81.96
68439;SHT31;55421;51.600;5.718;2024-02-21T04:09:16;9.56;82.00
68439;SHT31;55421;51.600;5.718;2024-02-21T04:11:43;9.55;82.05
68439;SHT31;55421;51.600;5.718;2024-02-21T04:14:10;9.54;82.09
68439;SHT31;55421;51.600;5.718;2024-02-21T04:16:37;9.53;82.10
68439;SHT31;55421;51.600;5.718;2024-02-21T04:19:05;9.53;82.10
68439;SHT31;55421;51.600;5.718;2024-02-21T04:21:31;9.55;82.10
68439;SHT31;55421;51.600;5.718;2024-02-21T04:23:58;9.54;82.14
68439;SHT31;55421;51.600;5.718;2024-02-21T04:26:25;9.56;82.11
68439;SHT31;55421;51.600;5.718;2024-02-21T04:28:51;9.56;82.11
68439;SHT31;55421;51.600;5.718;2024-02-21T04:31:18;9.58;82.09
68439;SHT31;55421;51.600;5.718;2024-02-21T04:33:44;9.58;82.10
68439;SHT31;55421;51.600;5.718;2024-02-21T04:36:10;9.60;82.17
68439;SHT31;55421;51.600;5.718;2024-02-21T04:38:37;9.60;82.17
68439;SHT31;55421;51.600;5.718;2024-02-21T04:41:05;9.60;82.09
68439;SHT31;55421;51.600;5.718;2024-02-21T04:43:31;9.60;82.08
68439;SHT31;55421;51.600;5.718;2024-02-21T04:45:58;9.60;82.10
68439;SHT31;55421;51.600;5.718;2024-02-21T04:48:25;9.59;82.11
68439;SHT31;55421;51.600;5.718;2024-02-21T04:50:52;9.59;82.17
68439;SHT31;55421;51.600;5.718;2024-02-21T04:53:18;9.61;82.28
68439;SHT31;55421;51.600;5.718;2024-02-21T04:55:45;9.60;82.21
68439;SHT31;55421;51.600;5.718;2024-02-21T04:58:12;9.61;82.29
68439;SHT31;55421;51.600;5.718;2024-02-21T05:00:38;9.62;82.30
68439;SHT31;55421;51.600;5.718;2024-02-21T05:03:05;9.62;82.29
68439;SHT31;55421;51.600;5.718;2024-02-21T05:05:32;9.63;82.36
68439;SHT31;55421;51.600;5.718;2024-02-21T05:07:58;9.62;82.36
68439;SHT31;55421;51.600;5.718;2024-02-21T05:10:25;9.62;82.37
68439;SHT31;55421;51.600;5.718;2024-02-21T05:12:52;9.59;82.39
68439;SHT31;55421;51.600;5.718;2024-02-21T05:15:18;9.56;82.48
68439;SHT31;55421;51.600;5.718;2024-02-21T05:17:44;9.54;82.53
68439;SHT31;55421;51.600;5.718;2024-02-21T05:20:11;9.53;82.60
68439;SHT31;55421;51.600;5.718;2024-02-21T05:22:38;9.52;82.59
68439;SHT31;55421;51.600;5.718;2024-02-21T05:25:06;9.51;82.61
68439;SHT31;55421;51.600;5.718;2024-02-21T05:27:33;9.51;82.73
68439;SHT31;55421;51.600;5.718;2024-02-21T05:30:01;9.52;82.80
68439;SHT31;55421;51.600;5.718;2024-02-21T05:32:29;9.53;82.83
68439;SHT31;55421;51.600;5.718;2024-02-21T05:34:56;9.54;82.80
68439;SHT31;55421;51.600;5.718;2024-02-21T05:37:24;9.55;82.81
68439;SHT31;55421;51.600;5.718;2024-02-21T05:39:50;9.56;82.80
68439;SHT31;55421;51.600;5.718;2024-02-21T05:42:17;9.57;82.82
68439;SHT31;55421;51.600;5.718;2024-02-21T05:44:44;9.58;82.89
68439;SHT31;55421;51.600;5.718;2024-02-21T05:47:10;9.60;82.82
68439;SHT31;55421;51.600;5.718;2024-02-21T05:49:39;9.61;82.82
68439;SHT31;55421;51.600;5.718;2024-02-21T05:52:05;9.60;82.72
68439;SHT31;55421;51.600;5.718;2024-02-21T05:54:32;9.59;82.70
68439;SHT31;55421;51.600;5.718;2024-02-21T05:56:59;9.56;82.70
68439;SHT31;55421;51.600;5.718;2024-02-21T05:59:25;9.54;82.78
68439;SHT31;55421;51.600;5.718;2024-02-21T06:01:55;9.52;82.88
68439;SHT31;55421;51.600;5.718;2024-02-21T06:04:25;9.49;82.89
68439;SHT31;55421;51.600;5.718;2024-02-21T06:06:51;9.46;82.84
68439;SHT31;55421;51.600;5.718;2024-02-21T06:09:18;9.44;82.84
68439;SHT31;55421;51.600;5.718;2024-02-21T06:11:45;9.42;82.90
68439;SHT31;55421;51.600;5.718;2024-02-21T06:14:12;9.42;82.90
68439;SHT31;55421;51.600;5.718;2024-02-21T06:16:39;9.42;82.90
68439;SHT31;55421;51.600;5.718;2024-02-21T06:19:05;9.43;82.90
68439;SHT31;55421;51.600;5.718;2024-02-21T06:21:32;9.43;82.90
68439;SHT31;55421;51.600;5.718;2024-02-21T06:23:58;9.44;82.95
68439;SHT31;55421;51.600;5.718;2024-02-21T06:26:24;9.45;82.91
68439;SHT31;55421;51.600;5.718;2024-02-21T06:28:52;9.46;82.90
68439;SHT31;55421;51.600;5.718;2024-02-21T06:31:18;9.47;82.89
68439;SHT31;55421;51.600;5.718;2024-02-21T06:33:44;9.48;82.90
68439;SHT31;55421;51.600;5.718;2024-02-21T06:36:11;9.49;82.90
68439;SHT31;55421;51.600;5.718;2024-02-21T06:38:37;9.52;82.91
68439;SHT31;55421;51.600;5.718;2024-02-21T06:41:04;9.53;82.90
68439;SHT31;55421;51.600;5.718;2024-02-21T06:43:30;9.53;82.82
68439;SHT31;55421;51.600;5.718;2024-02-21T06:45:58;9.53;82.71
68439;SHT31;55421;51.600;5.718;2024-02-21T06:48:24;9.53;82.70
68439;SHT31;55421;51.600;5.718;2024-02-21T06:50:51;9.51;82.70
68439;SHT31;55421;51.600;5.718;2024-02-21T06:53:17;9.49;82.73
68439;SHT31;55421;51.600;5.718;2024-02-21T06:55:44;9.47;82.70
68439;SHT31;55421;51.600;5.718;2024-02-21T06:58:10;9.46;82.76
68439;SHT31;55421;51.600;5.718;2024-02-21T07:00:38;9.44;82.83
68439;SHT31;55421;51.600;5.718;2024-02-21T07:03:06;9.46;82.84
68439;SHT31;55421;51.600;5.718;2024-02-21T07:05:33;9.45;82.81
68439;SHT31;55421;51.600;5.718;2024-02-21T07:07:59;9.45;82.82
68439;SHT31;55421;51.600;5.718;2024-02-21T07:10:26;9.46;82.82
68439;SHT31;55421;51.600;5.718;2024-02-21T07:12:55;9.47;82.88
68439;SHT31;55421;51.600;5.718;2024-02-21T07:15:21;9.48;82.82
68439;SHT31;55421;51.600;5.718;2024-02-21T07:17:48;9.50;82.80
68439;SHT31;55421;51.600;5.718;2024-02-21T07:20:14;9.49;82.73
68439;SHT31;55421;51.600;5.718;2024-02-21T07:22:41;9.51;82.73
68439;SHT31;55421;51.600;5.718;2024-02-21T07:25:08;9.53;82.80
68439;SHT31;55421;51.600;5.718;2024-02-21T07:27:34;9.56;82.80
68439;SHT31;55421;51.600;5.718;2024-02-21T07:30:01;9.59;82.73
68439;SHT31;55421;51.600;5.718;2024-02-21T07:32:28;9.60;82.69
68439;SHT31;55421;51.600;5.718;2024-02-21T07:34:54;9.62;82.70
68439;SHT31;55421;51.600;5.718;2024-02-21T07:37:21;9.64;82.68
68439;SHT31;55421;51.600;5.718;2024-02-21T07:39:47;9.64;82.60
68439;SHT31;55421;51.600;5.718;2024-02-21T07:42:14;9.67;82.67
68439;SHT31;55421;51.600;5.718;2024-02-21T07:44:41;9.69;82.61
68439;SHT31;55421;51.600;5.718;2024-02-21T07:47:08;9.72;82.60
68439;SHT31;55421;51.600;5.718;2024-02-21T07:49:41;9.73;82.59
68439;SHT31;55421;51.600;5.718;2024-02-21T07:52:11;9.73;82.50
68439;SHT31;55421;51.600;5.718;2024-02-21T07:54:37;9.73;82.54
68439;SHT31;55421;51.600;5.718;2024-02-21T07:57:04;9.72;82.51
68439;SHT31;55421;51.600;5.718;2024-02-21T07:59:31;9.72;82.51
68439;SHT31;55421;51.600;5.718;2024-02-21T08:01:58;9.72;82.58
68439;SHT31;55421;51.600;5.718;2024-02-21T08:04:25;9.74;82.50
68439;SHT31;55421;51.600;5.718;2024-02-21T08:06:52;9.76;82.54
68439;SHT31;55421;51.600;5.718;2024-02-21T08:09:20;9.79;82.54
68439;SHT31;55421;51.600;5.718;2024-02-21T08:11:47;9.83;82.44
68439;SHT31;55421;51.600;5.718;2024-02-21T08:14:13;9.84;82.32
68439;SHT31;55421;51.600;5.718;2024-02-21T08:16:42;9.87;82.25
68439;SHT31;55421;51.600;5.718;2024-02-21T08:19:10;9.88;82.20
68439;SHT31;55421;51.600;5.718;2024-02-21T08:21:37;9.91;82.21
68439;SHT31;55421;51.600;5.718;2024-02-21T08:24:04;9.94;82.11
68439;SHT31;55421;51.600;5.718;2024-02-21T08:26:32;9.98;82.10
68439;SHT31;55421;51.600;5.718;2024-02-21T08:28:58;10.01;82.01
68439;SHT31;55421;51.600;5.718;2024-02-21T08:31:28;10.01;81.93
68439;SHT31;55421;51.600;5.718;2024-02-21T08:33:57;10.02;81.96
68439;SHT31;55421;51.600;5.718;2024-02-21T08:36:31;10.02;81.90
68439;SHT31;55421;51.600;5.718;2024-02-21T08:39:00;10.02;81.90
68439;SHT31;55421;51.600;5.718;2024-02-21T08:41:32;10.03;81.84
68439;SHT31;55421;51.600;5.718;2024-02-21T08:44:01;10.04;81.78
68439;SHT31;55421;51.600;5.718;2024-02-21T08:46:28;10.06;81.70
68439;SHT31;55421;51.600;5.718;2024-02-21T08:48:55;10.10;81.68
68439;SHT31;55421;51.600;5.718;2024-02-21T08:51:21;10.12;81.60
68439;SHT31;55421;51.600;5.718;2024-02-21T08:53:48;10.15;81.63
68439;SHT31;55421;51.600;5.718;2024-02-21T08:56:15;10.19;81.60
68439;SHT31;55421;51.600;5.718;2024-02-21T08:58:42;10.21;81.48
68439;SHT31;55421;51.600;5.718;2024-02-21T09:01:09;10.23;81.40
68439;SHT31;55421;51.600;5.718;2024-02-21T09:03:39;10.25;81.34
68439;SHT31;55421;51.600;5.718;2024-02-21T09:06:06;10.27;81.39
68439;SHT31;55421;51.600;5.718;2024-02-21T09:08:33;10.30;81.49
68439;SHT31;55421;51.600;5.718;2024-02-21T09:11:00;10.32;81.48
68439;SHT31;55421;51.600;5.718;2024-02-21T09:13:27;10.35;81.43
68439;SHT31;55421;51.600;5.718;2024-02-21T09:15:54;10.38;81.47
68439;SHT31;55421;51.600;5.718;2024-02-21T09:18:24;10.41;81.48
68439;SHT31;55421;51.600;5.718;2024-02-21T09:20:51;10.43;81.44
68439;SHT31;55421;51.600;5.718;2024-02-21T09:23:18;10.43;81.37
68439;SHT31;55421;51.600;5.718;2024-02-21T09:25:47;10.44;81.40
68439;SHT31;55421;51.600;5.718;2024-02-21T09:28:13;10.44;81.41
68439;SHT31;55421;51.600;5.718;2024-02-21T09:30:40;10.41;81.47
68439;SHT31;55421;51.600;5.718;2024-02-21T09:33:07;10.37;81.53
68439;SHT31;55421;51.600;5.718;2024-02-21T09:35:33;10.35;81.72
68439;SHT31;55421;51.600;5.718;2024-02-21T09:38:00;10.35;81.86
68439;SHT31;55421;51.600;5.718;2024-02-21T09:40:27;10.33;81.94
68439;SHT31;55421;51.600;5.718;2024-02-21T09:43:03;10.34;82.14
68439;SHT31;55421;51.600;5.718;2024-02-21T09:45:34;10.37;82.33
68439;SHT31;55421;51.600;5.718;2024-02-21T09:50:36;10.36;82.41
68439;SHT31;55421;51.600;5.718;2024-02-21T09:53:11;10.35;82.51
68439;SHT31;55421;51.600;5.718;2024-02-21T09:55:39;10.32;82.57
68439;SHT31;55421;51.600;5.718;2024-02-21T09:58:09;10.31;82.60
68439;SHT31;55421;51.600;5.718;2024-02-21T10:00:36;10.28;82.67
68439;SHT31;55421;51.600;5.718;2024-02-21T10:03:03;10.24;82.67
68439;SHT31;55421;51.600;5.718;2024-02-21T10:05:36;10.26;82.88
68439;SHT31;55421;51.600;5.718;2024-02-21T10:08:04;10.26;82.89
68439;SHT31;55421;51.600;5.718;2024-02-21T10:10:44;10.25;82.83
68439;SHT31;55421;51.600;5.718;2024-02-21T10:13:28;10.25;82.83
68439;SHT31;55421;51.600;5.718;2024-02-21T10:18:33;10.30;82.76
68439;SHT31;55421;51.600;5.718;2024-02-21T10:21:01;10.35;82.79
68439;SHT31;55421;51.600;5.718;2024-02-21T10:23:40;10.43;82.63
68439;SHT31;55421;51.600;5.718;2024-02-21T10:26:11;10.50;82.39
68439;SHT31;55421;51.600;5.718;2024-02-21T10:28:38;10.57;82.20
68439;SHT31;55421;51.600;5.718;2024-02-21T10:31:20;10.61;82.11
68439;SHT31;55421;51.600;5.718;2024-02-21T10:33:59;10.67;82.00
68439;SHT31;55421;51.600;5.718;2024-02-21T10:36:29;10.68;81.87
68439;SHT31;55421;51.600;5.718;2024-02-21T10:38:56;10.72;81.76
68439;SHT31;55421;51.600;5.718;2024-02-21T10:41:23;10.75;81.53
68439;SHT31;55421;51.600;5.718;2024-02-21T10:43:51;10.80;81.33
68439;SHT31;55421;51.600;5.718;2024-02-21T10:46:24;10.83;81.22
68439;SHT31;55421;51.600;5.718;2024-02-21T10:49:16;10.88;81.21
68439;SHT31;55421;51.600;5.718;2024-02-21T10:51:54;10.94;80.91
68439;SHT31;55421;51.600;5.718;2024-02-21T10:57:22;11.00;80.41
68439;SHT31;55421;51.600;5.718;2024-02-21T10:59:51;11.02;80.33
68439;SHT31;55421;51.600;5.718;2024-02-21T11:02:20;11.03;79.95
68439;SHT31;55421;51.600;5.718;2024-02-21T11:04:48;11.05;79.94
68439;SHT31;55421;51.600;5.718;2024-02-21T11:07:16;11.11;79.94
68439;SHT31;55421;51.600;5.718;2024-02-21T11:09:50;11.15;79.55
68439;SHT31;55421;51.600;5.718;2024-02-21T11:12:21;11.20;79.56
68439;SHT31;55421;51.600;5.718;2024-02-21T11:14:49;11.24;79.39
68439;SHT31;55421;51.600;5.718;2024-02-21T11:17:16;11.26;79.43
68439;SHT31;55421;51.600;5.718;2024-02-21T11:19:44;11.28;79.30
68439;SHT31;55421;51.600;5.718;2024-02-21T11:22:18;11.28;79.20
68439;SHT31;55421;51.600;5.718;2024-02-21T11:24:47;11.26;78.92
68439;SHT31;55421;51.600;5.718;2024-02-21T11:27:21;11.24;78.77
68439;SHT31;55421;51.600;5.718;2024-02-21T11:29:55;11.22;78.61
68439;SHT31;55421;51.600;5.718;2024-02-21T11:32:24;11.22;78.68
68439;SHT31;55421;51.600;5.718;2024-02-21T11:34:54;11.22;78.56
68439;SHT31;55421;51.600;5.718;2024-02-21T11:37:28;11.23;78.56
68439;SHT31;55421;51.600;5.718;2024-02-21T11:39:56;11.24;78.44
68439;SHT31;55421;51.600;5.718;2024-02-21T11:42:27;11.23;78.26
68439;SHT31;55421;51.600;5.718;2024-02-21T11:44:56;11.22;78.22
68439;SHT31;55421;51.600;5.718;2024-02-21T11:47:23;11.20;78.14
68439;SHT31;55421;51.600;5.718;2024-02-21T11:49:50;11.20;78.16
68439;SHT31;55421;51.600;5.718;2024-02-21T11:52:21;11.28;78.15
68439;SHT31;55421;51.600;5.718;2024-02-21T11:54:51;11.40;78.03
68439;SHT31;55421;51.600;5.718;2024-02-21T11:57:23;11.54;78.04
68439;SHT31;55421;51.600;5.718;2024-02-21T11:59:53;11.66;77.68
68439;SHT31;55421;51.600;5.718;2024-02-21T12:02:21;11.73;77.53
68439;SHT31;55421;51.600;5.718;2024-02-21T12:04:54;11.74;77.33
68439;SHT31;55421;51.600;5.718;2024-02-21T12:07:22;11.71;77.10
68439;SHT31;55421;51.600;5.718;2024-02-21T12:09:49;11.67;76.99
68439;SHT31;55421;51.600;5.718;2024-02-21T12:12:19;11.62;76.96
68439;SHT31;55421;51.600;5.718;2024-02-21T12:14:46;11.62;77.13
68439;SHT31;55421;51.600;5.718;2024-02-21T12:17:13;11.70;77.22
68439;SHT31;55421;51.600;5.718;2024-02-21T12:19:40;11.81;77.18
68439;SHT31;55421;51.600;5.718;2024-02-21T12:22:06;11.91;77.03
68439;SHT31;55421;51.600;5.718;2024-02-21T12:24:34;12.00;76.98
68439;SHT31;55421;51.600;5.718;2024-02-21T12:27:02;12.08;76.78
68439;SHT31;55421;51.600;5.718;2024-02-21T12:29:29;12.14;76.64
68439;SHT31;55421;51.600;5.718;2024-02-21T12:31:56;12.21;76.80
68439;SHT31;55421;51.600;5.718;2024-02-21T12:34:23;12.27;76.60
68439;SHT31;55421;51.600;5.718;2024-02-21T12:36:51;12.32;76.40
68439;SHT31;55421;51.600;5.718;2024-02-21T12:39:18;12.37;76.21
68439;SHT31;55421;51.600;5.718;2024-02-21T12:41:44;12.42;76.07
68439;SHT31;55421;51.600;5.718;2024-02-21T12:44:11;12.45;76.15
68439;SHT31;55421;51.600;5.718;2024-02-21T12:46:38;12.50;76.26
68439;SHT31;55421;51.600;5.718;2024-02-21T12:49:08;12.53;76.08
68439;SHT31;55421;51.600;5.718;2024-02-21T12:51:36;12.53;75.62
68439;SHT31;55421;51.600;5.718;2024-02-21T12:54:04;12.54;75.66
68439;SHT31;55421;51.600;5.718;2024-02-21T12:56:30;12.55;75.42
68439;SHT31;55421;51.600;5.718;2024-02-21T12:58:57;12.57;75.27
68439;SHT31;55421;51.600;5.718;2024-02-21T13:01:25;12.59;75.35
68439;SHT31;55421;51.600;5.718;2024-02-21T13:03:52;12.60;75.21
68439;SHT31;55421;51.600;5.718;2024-02-21T13:06:20;12.60;75.11
68439;SHT31;55421;51.600;5.718;2024-02-21T13:08:47;12.59;75.24
68439;SHT31;55421;51.600;5.718;2024-02-21T13:11:13;12.58;75.20
68439;SHT31;55421;51.600;5.718;2024-02-21T13:13:40;12.52;74.87
68439;SHT31;55421;51.600;5.718;2024-02-21T13:16:06;12.47;74.75
68439;SHT31;55421;51.600;5.718;2024-02-21T13:18:34;12.42;74.82
68439;SHT31;55421;51.600;5.718;2024-02-21T13:21:04;12.40;74.85
68439;SHT31;55421;51.600;5.718;2024-02-21T13:23:32;12.38;74.77
68439;SHT31;55421;51.600;5.718;2024-02-21T13:25:59;12.37;74.48
68439;SHT31;55421;51.600;5.718;2024-02-21T13:28:25;12.35;74.25
68439;SHT31;55421;51.600;5.718;2024-02-21T13:30:52;12.32;73.77
68439;SHT31;55421;51.600;5.718;2024-02-21T13:33:19;12.28;73.50
68439;SHT31;55421;51.600;5.718;2024-02-21T13:35:46;12.28;73.62
68439;SHT31;55421;51.600;5.718;2024-02-21T13:38:12;12.27;73.59
68439;SHT31;55421;51.600;5.718;2024-02-21T13:40:40;12.28;73.81
68439;SHT31;55421;51.600;5.718;2024-02-21T13:43:26;12.30;74.02
68439;SHT31;55421;51.600;5.718;2024-02-21T13:45:57;12.31;73.93
68439;SHT31;55421;51.600;5.718;2024-02-21T13:48:28;12.30;73.65
68439;SHT31;55421;51.600;5.718;2024-02-21T13:50:56;12.27;73.49
68439;SHT31;55421;51.600;5.718;2024-02-21T13:53:23;12.22;73.49
68439;SHT31;55421;51.600;5.718;2024-02-21T13:55:49;12.18;73.42
68439;SHT31;55421;51.600;5.718;2024-02-21T13:58:18;12.14;73.68
68439;SHT31;55421;51.600;5.718;2024-02-21T14:00:46;12.13;73.62
68439;SHT31;55421;51.600;5.718;2024-02-21T14:03:18;12.10;73.79
68439;SHT31;55421;51.600;5.718;2024-02-21T14:05:46;12.09;74.04
68439;SHT31;55421;51.600;5.718;2024-02-21T14:08:14;12.07;73.89
68439;SHT31;55421;51.600;5.718;2024-02-21T14:10:41;12.01;73.59
68439;SHT31;55421;51.600;5.718;2024-02-21T14:13:08;11.97;73.79
68439;SHT31;55421;51.600;5.718;2024-02-21T14:15:34;11.94;73.99
68439;SHT31;55421;51.600;5.718;2024-02-21T14:18:02;11.91;73.97
68439;SHT31;55421;51.600;5.718;2024-02-21T14:20:32;11.89;73.85
68439;SHT31;55421;51.600;5.718;2024-02-21T14:22:58;11.86;73.80
68439;SHT31;55421;51.600;5.718;2024-02-21T14:25:25;11.83;73.66
68439;SHT31;55421;51.600;5.718;2024-02-21T14:27:51;11.82;73.70
68439;SHT31;55421;51.600;5.718;2024-02-21T14:30:18;11.80;73.88
68439;SHT31;55421;51.600;5.718;2024-02-21T14:32:44;11.79;74.23
68439;SHT31;55421;51.600;5.718;2024-02-21T14:35:11;11.78;74.30
68439;SHT31;55421;51.600;5.718;2024-02-21T14:37:38;11.78;74.43
68439;SHT31;55421;51.600;5.718;2024-02-21T14:40:05;11.77;74.29
68439;SHT31;55421;51.600;5.718;2024-02-21T14:42:32;11.77;74.29
68439;SHT31;55421;51.600;5.718;2024-02-21T14:45:00;11.77;74.42
68439;SHT31;55421;51.600;5.718;2024-02-21T14:47:33;11.78;74.58
68439;SHT31;55421;51.600;5.718;2024-02-21T14:49:59;11.77;74.35
68439;SHT31;55421;51.600;5.718;2024-02-21T14:52:28;11.76;74.34
68439;SHT31;55421;51.600;5.718;2024-02-21T14:54:55;11.74;74.23
68439;SHT31;55421;51.600;5.718;2024-02-21T14:57:22;11.71;74.34
68439;SHT31;55421;51.600;5.718;2024-02-21T14:59:49;11.69;74.47
68439;SHT31;55421;51.600;5.718;2024-02-21T15:02:18;11.68;74.87
68439;SHT31;55421;51.600;5.718;2024-02-21T15:04:44;11.66;74.94
68439;SHT31;55421;51.600;5.718;2024-02-21T15:07:11;11.64;75.03
68439;SHT31;55421;51.600;5.718;2024-02-21T15:09:37;11.61;75.24
68439;SHT31;55421;51.600;5.718;2024-02-21T15:12:05;11.59;75.49
68439;SHT31;55421;51.600;5.718;2024-02-21T15:14:32;11.58;75.82
68439;SHT31;55421;51.600;5.718;2024-02-21T15:16:58;11.55;76.01
68439;SHT31;55421;51.600;5.718;2024-02-21T15:19:25;11.51;75.99
68439;SHT31;55421;51.600;5.718;2024-02-21T15:21:51;11.45;76.21
68439;SHT31;55421;51.600;5.718;2024-02-21T15:24:19;11.40;76.39
68439;SHT31;55421;51.600;5.718;2024-02-21T15:26:46;11.36;76.78
68439;SHT31;55421;51.600;5.718;2024-02-21T15:29:12;11.35;77.07
68439;SHT31;55421;51.600;5.718;2024-02-21T15:31:39;11.32;77.09
68439;SHT31;55421;51.600;5.718;2024-02-21T15:34:10;11.30;77.10
68439;SHT31;55421;51.600;5.718;2024-02-21T15:36:36;11.27;77.28
68439;SHT31;55421;51.600;5.718;2024-02-21T15:39:03;11.25;77.49
68439;SHT31;55421;51.600;5.718;2024-02-21T15:41:29;11.24;77.51
68439;SHT31;55421;51.600;5.718;2024-02-21T15:43:56;11.23;77.72
68439;SHT31;55421;51.600;5.718;2024-02-21T15:46:25;11.20;77.90
68439;SHT31;55421;51.600;5.718;2024-02-21T15:48:52;11.18;78.10
68439;SHT31;55421;51.600;5.718;2024-02-21T15:51:20;11.18;78.38
68439;SHT31;55421;51.600;5.718;2024-02-21T15:53:47;11.17;78.42